.
WxDataArchive / Data Records for 2015-07-02
2015-07-01 July 2015 2015-07-03

Data Records for Thursday, 02 July 2015

Time	Temp	Chill	HIndex	Humid	Dewpt	 Wind 	HiWind	WindDir	Rain 	Barom
-----	----	-----	------	-----	-----	------	------	-------	-----	-----
00:00	61.0	61.0	61.0	78	54.1	0	1	292	0.00	29.922 
00:05	60.9	60.9	60.9	79	54.3	0	1	292	0.00	29.922 
00:10	60.7	60.7	60.7	80	54.5	0	1	292	0.00	29.922 
00:15	60.5	60.5	60.5	80	54.3	0	0	---	0.00	29.919 
00:20	60.4	60.4	60.4	81	54.5	0	1	292	0.00	29.919 
00:25	60.4	60.4	60.4	81	54.5	0	0	---	0.00	29.919 
00:30	60.2	60.2	60.2	82	54.7	0	0	---	0.00	29.925 
00:35	60.1	60.1	60.1	82	54.6	0	0	---	0.00	29.925 
00:40	59.9	59.9	59.9	82	54.4	0	0	---	0.00	29.925 
00:45	59.9	59.9	59.9	83	54.7	0	1	292	0.00	29.926 
00:50	59.8	59.8	59.8	83	54.6	0	1	292	0.00	29.926 
00:55	59.6	59.6	59.6	83	54.4	0	0	---	0.00	29.926 
01:00	59.6	59.6	59.6	83	54.4	0	0	---	0.00	29.922 
01:05	59.5	59.5	59.5	84	54.7	0	1	292	0.00	29.922 
01:10	59.3	59.3	59.3	84	54.5	0	0	---	0.00	29.922 
01:15	59.2	59.2	59.2	84	54.4	0	1	292	0.00	29.920 
01:20	59.2	59.2	59.2	84	54.4	0	0	---	0.00	29.920 
01:25	59.0	59.0	59.0	84	54.2	0	2	292	0.00	29.920 
01:30	59.0	59.0	59.0	85	54.5	0	0	---	0.00	29.917 
01:35	59.0	59.0	59.0	85	54.5	0	1	292	0.00	29.917 
01:40	59.0	59.0	59.0	85	54.5	0	1	292	0.00	29.917 
01:45	58.9	58.9	58.9	85	54.4	0	1	292	0.00	29.915 
01:50	58.9	58.9	58.9	85	54.4	0	1	292	0.00	29.915 
01:55	58.7	58.7	58.7	86	54.5	0	0	---	0.00	29.915 
02:00	58.7	58.7	58.7	86	54.5	0	1	292	0.00	29.915 
02:05	58.6	58.6	58.6	86	54.4	0	1	292	0.00	29.915 
02:10	58.6	58.6	58.6	86	54.4	0	0	---	0.00	29.915 
02:15	58.4	58.4	58.4	86	54.2	0	0	---	0.00	29.914 
02:20	58.4	58.4	58.4	87	54.5	0	2	292	0.00	29.914 
02:25	58.4	58.4	58.4	87	54.5	0	1	292	0.00	29.914 
02:30	58.6	58.6	58.6	87	54.7	0	1	292	0.00	29.913 
02:35	58.6	58.6	58.6	87	54.7	0	1	292	0.00	29.913 
02:40	58.6	58.6	58.6	87	54.7	0	0	---	0.00	29.913 
02:45	58.6	58.6	58.6	87	54.7	0	1	292	0.00	29.912 
02:50	58.6	58.6	58.6	87	54.7	0	1	292	0.00	29.912 
02:55	58.6	58.6	58.6	87	54.7	0	1	292	0.00	29.912 
03:00	58.4	58.4	58.4	87	54.5	0	1	292	0.00	29.911 
03:05	58.4	58.4	58.4	87	54.5	0	1	292	0.00	29.911 
03:10	58.4	58.4	58.4	87	54.5	0	1	292	0.00	29.911 
03:15	58.3	58.3	58.3	88	54.8	0	0	---	0.00	29.908 
03:20	58.3	58.3	58.3	88	54.8	0	1	292	0.00	29.908 
03:25	58.3	58.3	58.3	88	54.8	0	1	292	0.00	29.908 
03:30	58.3	58.3	58.3	88	54.8	0	1	292	0.00	29.902 
03:35	58.3	58.3	58.3	88	54.8	0	1	292	0.00	29.902 
03:40	58.3	58.3	58.3	88	54.8	0	1	292	0.00	29.902 
03:45	58.1	58.1	58.1	88	54.6	0	1	292	0.00	29.905 
03:50	58.1	58.1	58.1	88	54.6	0	1	292	0.00	29.905 
03:55	58.1	58.1	58.1	88	54.6	0	1	292	0.00	29.905 
04:00	58.1	58.1	58.1	88	54.6	0	1	292	0.00	29.900 
04:05	58.1	58.1	58.1	88	54.6	0	1	292	0.00	29.900 
04:10	58.3	58.3	58.3	88	54.8	0	0	---	0.00	29.900 
04:15	58.3	58.3	58.3	89	55.1	0	0	---	0.00	29.898 
04:20	58.3	58.3	58.3	89	55.1	0	0	---	0.00	29.898 
04:25	58.3	58.3	58.3	89	55.1	0	0	---	0.00	29.898 
04:30	58.4	58.4	58.4	89	55.2	0	0	---	0.00	29.900 
04:35	58.4	58.4	58.4	89	55.2	0	0	---	0.00	29.900 
04:40	58.4	58.4	58.4	89	55.2	0	0	---	0.00	29.900 
04:45	58.6	58.6	58.6	89	55.4	0	0	---	0.00	29.899 
04:50	58.6	58.6	58.6	89	55.4	0	0	---	0.00	29.899 
04:55	58.6	58.6	58.6	89	55.4	0	0	---	0.00	29.899 
05:00	58.6	58.6	58.6	89	55.4	0	0	---	0.00	29.887 
05:05	58.6	58.6	58.6	89	55.4	0	2	292	0.00	29.887 
05:10	58.6	58.6	58.6	89	55.4	0	0	---	0.00	29.887 
05:15	58.6	58.6	58.6	89	55.4	0	0	---	0.00	29.891 
05:20	58.6	58.6	58.6	89	55.4	0	0	---	0.00	29.891 
05:25	58.6	58.6	58.6	89	55.4	0	0	---	0.00	29.891 
05:30	58.6	58.6	58.6	89	55.4	0	0	---	0.00	29.891 
05:35	58.7	58.7	58.7	89	55.5	0	1	292	0.00	29.891 
05:40	58.7	58.7	58.7	89	55.5	0	1	292	0.00	29.891 
05:45	58.7	58.7	58.7	89	55.5	0	1	292	0.00	29.883 
05:50	58.7	58.7	58.7	89	55.5	0	2	292	0.00	29.883 
05:55	58.9	58.9	58.9	89	55.7	0	1	292	0.00	29.883 
06:00	58.9	58.9	58.9	89	55.7	0	1	292	0.00	29.883 
06:05	58.9	58.9	58.9	89	55.7	0	0	---	0.00	29.883 
06:10	58.9	58.9	58.9	89	55.7	0	1	292	0.00	29.883 
06:15	58.9	58.9	58.9	89	55.7	0	2	292	0.00	29.889 
06:20	59.0	59.0	59.0	88	55.4	0	1	292	0.00	29.889 
06:25	59.0	59.0	59.0	88	55.4	0	2	292	0.00	29.889 
06:30	59.0	59.0	59.0	88	55.4	0	1	292	0.00	29.894 
06:35	59.0	59.0	59.0	88	55.4	0	1	292	0.00	29.894 
06:40	59.2	59.2	59.2	88	55.6	0	1	292	0.00	29.894 
06:45	59.2	59.2	59.2	88	55.6	0	1	292	0.00	29.898 
06:50	59.3	59.3	59.3	88	55.7	0	1	292	0.00	29.898 
06:55	59.3	59.3	59.3	88	55.7	0	2	292	0.00	29.898 
07:00	59.5	59.5	59.5	88	55.9	0	2	292	0.00	29.900 
07:05	59.6	59.6	59.6	88	56.0	0	1	292	0.00	29.900 
07:10	59.8	59.8	59.8	88	56.2	0	2	292	0.00	29.900 
07:15	59.9	59.9	59.9	88	56.3	1	5	90	0.00	29.901 
07:20	60.1	60.1	60.1	88	56.5	1	3	90	0.00	29.901 
07:25	60.2	60.2	60.2	88	56.6	1	4	90	0.00	29.901 
07:30	60.4	60.4	60.4	88	56.8	1	4	90	0.00	29.900 
07:35	60.5	60.5	60.5	88	56.9	1	4	90	0.00	29.900 
07:40	60.7	60.7	60.7	88	57.1	0	3	90	0.00	29.900 
07:45	60.9	60.9	60.9	88	57.3	0	2	90	0.00	29.906 
07:50	61.0	61.0	61.0	88	57.4	1	3	90	0.00	29.906 
07:55	61.2	61.2	61.2	88	57.6	1	5	90	0.00	29.906 
08:00	61.3	61.3	61.3	88	57.7	1	5	112	0.00	29.906 
08:05	61.6	61.6	61.6	89	58.3	1	7	112	0.00	29.906 
08:10	61.6	61.6	61.6	88	58.0	1	5	112	0.00	29.906 
08:15	61.8	61.8	61.8	88	58.2	1	4	112	0.00	29.905 
08:20	61.8	61.8	61.8	88	58.2	1	5	112	0.00	29.905 
08:25	61.8	61.8	61.8	88	58.2	1	4	90	0.00	29.905 
08:30	61.6	61.6	61.6	88	58.0	1	7	90	0.00	29.909 
08:35	61.8	61.8	61.8	88	58.2	2	5	90	0.00	29.909 
08:40	62.0	62.0	62.0	89	58.7	1	3	112	0.00	29.909 
08:45	62.1	62.1	62.1	88	58.5	3	7	112	0.00	29.914 
08:50	62.1	62.1	62.1	88	58.5	1	7	68	0.00	29.914 
08:55	62.3	62.3	62.3	88	58.7	1	4	112	0.00	29.914 
09:00	62.6	62.6	62.6	88	59.0	1	4	90	0.00	29.915 
09:05	62.7	62.7	62.7	88	59.1	2	9	90	0.00	29.915 
09:10	62.7	62.7	62.7	88	59.1	1	5	90	0.00	29.915 
09:15	62.9	62.9	62.9	88	59.3	1	3	90	0.00	29.921 
09:20	63.2	63.2	63.2	88	59.6	1	4	90	0.00	29.921 
09:25	63.4	63.4	63.4	87	59.5	1	10	90	0.00	29.921 
09:30	63.5	63.5	63.5	87	59.6	2	5	68	0.00	29.924 
09:35	63.5	63.5	63.5	86	59.2	2	6	90	0.00	29.924 
09:40	63.7	63.7	63.7	87	59.8	1	5	90	0.00	29.924 
09:45	63.9	63.9	63.9	86	59.6	1	4	112	0.00	29.924 
09:50	63.9	63.9	63.9	86	59.6	1	6	112	0.00	29.924 
09:55	63.9	63.9	63.9	86	59.6	1	4	112	0.00	29.924 
10:00	63.7	63.7	63.7	86	59.4	2	6	112	0.00	29.924 
10:05	63.9	63.9	63.9	86	59.6	1	4	112	0.00	29.924 
10:10	64.0	64.0	64.0	86	59.7	2	6	90	0.00	29.924 
10:15	64.0	64.0	64.0	85	59.4	1	6	90	0.00	29.933 
10:20	64.2	64.2	64.2	86	59.9	2	4	90	0.00	29.933 
10:25	64.2	64.2	64.2	85	59.6	2	5	68	0.00	29.933 
10:30	64.3	64.3	64.3	85	59.7	2	6	90	0.00	29.935 
10:35	64.3	64.3	64.3	85	59.7	2	6	90	0.00	29.935 
10:40	64.5	64.5	64.5	84	59.6	2	6	112	0.00	29.935 
10:45	64.7	64.7	64.7	84	59.7	2	5	112	0.00	29.937 
10:50	64.8	64.8	64.8	84	59.8	1	3	112	0.00	29.937 
10:55	65.0	65.0	65.0	84	60.0	2	5	90	0.00	29.937 
11:00	65.2	65.2	65.2	84	60.2	1	6	90	0.00	29.936 
11:05	65.2	65.2	65.2	84	60.2	2	5	112	0.00	29.936 
11:10	65.3	65.3	65.3	83	60.0	2	4	112	0.00	29.936 
11:15	65.3	65.3	65.3	83	60.0	2	7	112	0.00	29.940 
11:20	65.6	65.6	65.6	82	59.9	2	6	90	0.00	29.940 
11:25	65.6	65.6	65.6	81	59.6	2	6	90	0.00	29.940 
11:30	66.0	66.0	66.0	82	60.3	1	6	112	0.00	29.941 
11:35	66.3	66.3	66.3	81	60.3	1	5	90	0.00	29.941 
11:40	66.4	66.4	66.4	80	60.0	3	7	90	0.00	29.941 
11:45	66.6	66.6	66.6	80	60.2	2	7	90	0.00	29.936 
11:50	66.8	66.8	66.8	80	60.4	2	6	112	0.00	29.936 
11:55	66.6	66.6	66.6	80	60.2	1	9	90	0.00	29.936 
12:00	66.6	66.6	66.6	80	60.2	1	4	90	0.00	29.944 
12:05	66.4	66.4	66.4	80	60.0	1	5	90	0.00	29.944 
12:10	66.4	66.4	66.4	80	60.0	3	7	112	0.00	29.944 
12:15	66.6	66.6	66.6	80	60.2	2	4	90	0.00	29.949 
12:20	66.9	66.9	66.9	80	60.5	1	4	90	0.00	29.949 
12:25	67.3	67.3	67.3	79	60.6	1	3	68	0.00	29.949 
12:30	67.4	67.4	67.4	78	60.3	1	5	68	0.00	29.941 
12:35	67.8	67.8	67.8	77	60.3	2	5	90	0.00	29.941 
12:40	68.3	68.3	68.3	77	60.8	2	4	90	0.00	29.941 
12:45	68.6	68.6	68.6	76	60.7	1	4	90	0.00	29.933 
12:50	69.1	69.1	69.1	75	60.8	2	5	90	0.00	29.933 
12:55	69.6	69.6	69.6	73	60.6	2	7	90	0.00	29.933 
13:00	70.4	70.4	70.4	73	61.3	2	5	112	0.00	29.926 
13:05	71.1	71.1	71.1	71	61.2	1	5	90	0.00	29.926 
13:10	71.5	71.5	71.5	69	60.8	2	5	90	0.00	29.926 
13:15	70.9	70.9	70.9	69	60.2	2	6	90	0.00	29.927 
13:20	70.9	70.9	70.9	69	60.2	1	4	90	0.00	29.927 
13:25	71.3	71.3	71.3	68	60.2	3	8	90	0.00	29.927 
13:30	71.8	71.8	71.8	67	60.2	2	5	90	0.00	29.928 
13:35	72.1	72.1	72.1	65	59.7	3	6	90	0.00	29.928 
13:40	72.3	72.3	72.3	62	58.5	2	7	90	0.00	29.928 
13:45	72.7	72.7	72.7	62	58.9	2	5	90	0.00	29.926 
13:50	73.2	73.2	73.2	60	58.5	2	6	90	0.00	29.926 
13:55	73.9	73.9	73.9	63	60.5	1	6	68	0.00	29.926 
14:00	73.5	73.5	73.5	59	58.3	3	7	112	0.00	29.922 
14:05	73.0	73.0	73.0	61	58.7	3	7	90	0.00	29.922 
14:10	73.2	73.2	73.2	60	58.5	3	6	90	0.00	29.922 
14:15	73.5	73.5	73.5	62	59.7	3	8	90	0.00	29.922 
14:20	73.7	73.7	73.7	57	57.5	2	6	90	0.00	29.922 
14:25	73.7	73.7	73.7	59	58.5	1	3	68	0.00	29.922 
14:30	73.9	73.9	73.9	56	57.2	1	4	68	0.00	29.923 
14:35	73.9	73.9	73.9	59	58.7	1	5	90	0.00	29.923 
14:40	74.0	74.0	74.0	56	57.3	2	5	90	0.00	29.923 
14:45	74.0	74.0	74.0	58	58.3	2	6	90	0.00	29.917 
14:50	74.0	74.0	74.0	58	58.3	1	4	68	0.00	29.917 
14:55	74.4	74.4	74.4	58	58.6	1	3	90	0.00	29.917 
15:00	74.4	74.4	74.4	55	57.2	1	7	90	0.00	29.915 
15:05	74.4	74.4	74.4	54	56.7	2	5	90	0.00	29.915 
15:10	74.6	74.6	74.6	59	59.3	1	5	112	0.00	29.915 
15:15	74.9	74.9	74.9	56	58.1	1	4	158	0.00	29.914 
15:20	74.6	74.6	74.6	55	57.3	2	7	112	0.00	29.914 
15:25	74.0	74.0	74.0	54	56.3	1	5	90	0.00	29.914 
15:30	73.9	73.9	73.9	54	56.2	2	4	90	0.00	29.912 
15:35	74.6	74.6	74.6	53	56.3	3	6	90	0.00	29.912 
15:40	74.7	74.7	74.7	55	57.4	2	5	112	0.00	29.912 
15:45	74.9	74.9	74.9	52	56.1	2	5	112	0.00	29.914 
15:50	74.7	74.7	74.7	53	56.4	2	7	90	0.00	29.914 
15:55	74.7	74.7	74.7	53	56.4	2	6	90	0.00	29.914 
16:00	74.6	74.6	74.6	52	55.8	2	6	90	0.00	29.912 
16:05	74.2	74.2	74.2	54	56.5	1	6	68	0.00	29.912 
16:10	74.6	74.6	74.6	53	56.3	0	3	68	0.00	29.912 
16:15	74.7	74.7	74.7	51	55.4	1	5	90	0.00	29.911 
16:20	74.9	74.9	74.9	48	53.9	1	3	90	0.00	29.911 
16:25	75.3	75.3	77.7	50	55.4	2	6	90	0.00	29.911 
16:30	75.4	75.4	77.8	52	56.5	1	4	90	0.00	29.908 
16:35	75.3	75.3	77.7	49	54.8	2	5	90	0.00	29.908 
16:40	75.1	75.1	77.7	50	55.2	2	4	90	0.00	29.908 
16:45	75.1	75.1	77.7	47	53.5	3	6	90	0.00	29.902 
16:50	74.7	74.7	74.7	50	54.8	2	6	90	0.00	29.902 
16:55	74.6	74.6	74.6	50	54.7	2	5	90	0.00	29.902 
17:00	74.7	74.7	74.7	50	54.8	2	8	112	0.00	29.899 
17:05	75.1	75.1	77.7	51	55.7	1	7	112	0.00	29.899 
17:10	74.7	74.7	74.7	49	54.3	3	7	90	0.00	29.899 
17:15	74.2	74.2	74.2	51	54.9	2	4	90	0.00	29.903 
17:20	74.0	74.0	74.0	51	54.7	1	4	90	0.00	29.903 
17:25	74.2	74.2	74.2	53	56.0	1	7	90	0.00	29.903 
17:30	74.6	74.6	74.6	50	54.7	1	4	90	0.00	29.902 
17:35	74.4	74.4	74.4	50	54.5	1	4	90	0.00	29.902 
17:40	74.4	74.4	74.4	50	54.5	2	5	90	0.00	29.902 
17:45	74.0	74.0	74.0	50	54.2	2	6	90	0.00	29.900 
17:50	74.0	74.0	74.0	50	54.2	1	4	90	0.00	29.900 
17:55	73.9	73.9	73.9	51	54.6	2	5	90	0.00	29.900 
18:00	73.7	73.7	73.7	53	55.5	1	4	90	0.00	29.899 
18:05	73.9	73.9	73.9	52	55.1	1	3	90	0.00	29.899 
18:10	74.0	74.0	74.0	51	54.7	1	3	90	0.00	29.899 
18:15	74.2	74.2	74.2	51	54.9	1	5	90	0.00	29.897 
18:20	74.2	74.2	74.2	51	54.9	1	3	68	0.00	29.897 
18:25	74.0	74.0	74.0	53	55.8	1	4	68	0.00	29.897 
18:30	73.9	73.9	73.9	50	54.1	1	3	90	0.00	29.897 
18:35	73.5	73.5	73.5	50	53.7	1	4	90	0.00	29.897 
18:40	73.5	73.5	73.5	51	54.2	1	4	90	0.00	29.897 
18:45	73.5	73.5	73.5	49	53.2	1	3	90	0.00	29.896 
18:50	73.5	73.5	73.5	51	54.2	2	6	90	0.00	29.896 
18:55	73.5	73.5	73.5	51	54.2	2	8	90	0.00	29.896 
19:00	73.2	73.2	73.2	52	54.5	0	2	112	0.00	29.899 
19:05	73.0	73.0	73.0	52	54.3	1	4	112	0.00	29.899 
19:10	73.0	73.0	73.0	53	54.8	1	4	90	0.00	29.899 
19:15	72.8	72.8	72.8	53	54.7	2	7	90	0.00	29.898 
19:20	72.7	72.7	72.7	54	55.1	1	4	90	0.00	29.898 
19:25	72.7	72.7	72.7	54	55.1	3	6	90	0.00	29.898 
19:30	72.3	72.3	72.3	52	53.7	2	7	112	0.00	29.900 
19:35	72.1	72.1	72.1	54	54.5	2	4	68	0.00	29.900 
19:40	72.1	72.1	72.1	54	54.5	1	3	90	0.00	29.900 
19:45	72.0	72.0	72.0	55	54.9	0	3	90	0.00	29.909 
19:50	72.0	72.0	72.0	55	54.9	1	4	90	0.00	29.909 
19:55	71.8	71.8	71.8	55	54.7	2	6	90	0.00	29.909 
20:00	71.6	71.6	71.6	56	55.1	1	4	90	0.00	29.913 
20:05	71.5	71.5	71.5	56	55.0	1	4	90	0.00	29.913 
20:10	71.3	71.3	71.3	58	55.7	1	2	90	0.00	29.913 
20:15	71.1	71.1	71.1	58	55.6	2	4	90	0.00	29.912 
20:20	70.9	70.9	70.9	58	55.4	1	3	90	0.00	29.912 
20:25	70.6	70.6	70.6	59	55.6	1	3	90	0.00	29.912 
20:30	70.4	70.4	70.4	59	55.4	1	2	90	0.00	29.912 
20:35	70.3	70.3	70.3	59	55.3	1	4	90	0.00	29.912 
20:40	70.1	70.1	70.1	60	55.6	1	3	90	0.00	29.912 
20:45	69.9	69.9	69.9	61	55.8	0	2	90	0.00	29.916 
20:50	69.6	69.6	69.6	62	56.0	1	4	90	0.00	29.916 
20:55	69.3	69.3	69.3	62	55.7	1	3	90	0.00	29.916 
21:00	68.9	68.9	68.9	62	55.3	1	5	112	0.00	29.916 
21:05	68.6	68.6	68.6	62	55.0	1	3	112	0.00	29.916 
21:10	68.4	68.4	68.4	64	55.7	1	3	90	0.00	29.916 
21:15	68.1	68.1	68.1	64	55.5	0	2	90	0.00	29.915 
21:20	67.9	67.9	67.9	65	55.7	0	2	90	0.00	29.915 
21:25	67.6	67.6	67.6	66	55.8	0	2	90	0.00	29.915 
21:30	67.3	67.3	67.3	67	56.0	0	1	90	0.00	29.920 
21:35	66.9	66.9	66.9	68	56.0	0	0	---	0.00	29.920 
21:40	66.8	66.8	66.8	69	56.3	0	1	90	0.00	29.920 
21:45	66.4	66.4	66.4	70	56.3	0	1	90	0.00	29.917 
21:50	66.1	66.1	66.1	70	56.0	0	2	90	0.00	29.917 
21:55	66.0	66.0	66.0	70	55.9	0	2	90	0.00	29.917 
22:00	65.8	65.8	65.8	70	55.7	0	1	90	0.00	29.923 
22:05	65.6	65.6	65.6	70	55.5	0	2	90	0.00	29.923 
22:10	65.5	65.5	65.5	70	55.4	0	3	90	0.00	29.923 
22:15	65.3	65.3	65.3	70	55.3	0	1	90	0.00	29.932 
22:20	65.2	65.2	65.2	71	55.6	0	1	90	0.00	29.932 
22:25	65.0	65.0	65.0	72	55.7	0	1	90	0.00	29.932 
22:30	64.8	64.8	64.8	72	55.6	0	1	90	0.00	29.932 
22:35	64.7	64.7	64.7	73	55.8	0	2	90	0.00	29.932 
22:40	64.5	64.5	64.5	73	55.6	0	1	90	0.00	29.932 
22:45	64.3	64.3	64.3	73	55.5	0	2	90	0.00	29.934 
22:50	64.2	64.2	64.2	73	55.4	0	2	90	0.00	29.934 
22:55	64.0	64.0	64.0	74	55.5	0	3	90	0.00	29.934 
23:00	63.9	63.9	63.9	74	55.4	0	2	90	0.00	29.934 
23:05	63.9	63.9	63.9	74	55.4	0	1	90	0.00	29.934 
23:10	63.7	63.7	63.7	74	55.3	0	1	90	0.00	29.934 
23:15	63.5	63.5	63.5	74	55.1	0	1	90	0.00	29.934 
23:20	63.4	63.4	63.4	74	55.0	0	1	90	0.00	29.934 
23:25	63.4	63.4	63.4	74	55.0	0	1	90	0.00	29.934 
23:30	63.2	63.2	63.2	75	55.1	0	1	90	0.00	29.934 
23:35	63.2	63.2	63.2	75	55.1	0	1	90	0.00	29.934 
23:40	63.1	63.1	63.1	74	54.7	0	3	90	0.00	29.934 
23:45	63.1	63.1	63.1	75	55.0	0	1	90	0.00	29.935 
23:50	62.9	62.9	62.9	75	54.8	0	2	90	0.00	29.935 
23:55	62.9	62.9	62.9	75	54.8	0	1	90	0.00	29.935 

CoCoRaHS
IN-AL-39
A2 Web Hosting
Creative Commons License
GoDaddy
search engine by freefind advanced

loaded 2018-11-17 14:19:32 • last modified 2010-11-18 10:43:29
Privacy PolicyDisclaimer
• wx.awcolley.com is powered by PmWiki v.2002016 •
• all content (unless otherwise noted) © 2018 A W Colley